Green Mountain Falls, Colorado
Current Conditions -  °F | °C
As of 12:58 PM on Friday 21 Nov 2014 (Local Time) from KAFF Reporting Station
Clear Clear  
Wind Chill: 53°   Ceiling: Unl
Heat Index: 53°   Visibility: 10mi
Dew Point: 14°   Wind: 8mph
Humidity: 21%   Direction: 170°S
Pressure: 29.92"   Gusts: NA
Location:  38.93°N, 105.02°W
Report Text: KAFF 211958Z AUTO 17007KT 10SM CLR 12/M10 A2992 RMK AO2 SLP125 T01191102
Loading
Personal Weather Stations






























Interactive Weather Map New forecast layout! Learn more

10-Day Weather Forecast

Advertisements
Track Severe Weather on mobile